createdAt,value
2023-05-06T00:00:14.910Z,56.40
2023-05-06T00:02:44.524Z,56.50
2023-05-06T00:05:14.127Z,56.50
2023-05-06T00:07:42.575Z,56.50
2023-05-06T00:10:11.510Z,56.60
2023-05-06T00:12:40.121Z,56.50
2023-05-06T00:15:09.344Z,56.70
2023-05-06T00:17:39.315Z,56.60
2023-05-06T00:20:09.961Z,56.70
2023-05-06T00:22:38.545Z,56.70
2023-05-06T00:25:07.801Z,56.70
2023-05-06T00:27:36.570Z,56.70
2023-05-06T00:30:05.495Z,56.80
2023-05-06T00:32:34.948Z,56.90
2023-05-06T00:35:04.943Z,56.90
2023-05-06T00:37:33.485Z,57.20
2023-05-06T00:40:01.989Z,57.30
2023-05-06T00:42:30.521Z,57.70
2023-05-06T00:44:58.791Z,57.80
2023-05-06T00:47:27.540Z,57.80
2023-05-06T00:49:56.052Z,57.90
2023-05-06T00:52:26.407Z,57.90
2023-05-06T00:54:55.381Z,57.90
2023-05-06T00:57:24.706Z,58.10
2023-05-06T00:59:53.154Z,58.40
2023-05-06T01:02:21.903Z,58.70
2023-05-06T01:04:51.787Z,58.70
2023-05-06T01:07:30.033Z,58.80
2023-05-06T01:10:09.011Z,59.10
2023-05-06T01:12:45.494Z,59.20
2023-05-06T01:15:18.359Z,59.50
2023-05-06T01:17:50.054Z,59.80
2023-05-06T01:20:21.222Z,59.80
2023-05-06T01:22:51.246Z,60.00
2023-05-06T01:25:22.383Z,60.30
2023-05-06T01:27:51.163Z,60.30
2023-05-06T01:30:24.093Z,60.60
2023-05-06T01:33:02.066Z,61.00
2023-05-06T01:35:37.727Z,61.30
2023-05-06T01:38:17.146Z,61.40
2023-05-06T01:40:54.359Z,61.50
2023-05-06T01:43:25.342Z,61.90
2023-05-06T01:45:56.510Z,61.90
2023-05-06T01:48:27.948Z,62.50
2023-05-06T01:50:57.068Z,62.60
2023-05-06T01:53:25.573Z,63.40
2023-05-06T01:55:55.396Z,62.90
2023-05-06T01:58:23.789Z,63.00
2023-05-06T02:00:52.206Z,63.80
2023-05-06T02:03:20.640Z,64.20
2023-05-06T02:05:49.598Z,64.70
2023-05-06T02:08:17.944Z,64.60
2023-05-06T02:10:47.190Z,64.80
2023-05-06T02:13:19.040Z,64.70
2023-05-06T02:15:47.594Z,64.90
2023-05-06T02:18:19.112Z,65.10
2023-05-06T02:20:47.554Z,65.70
2023-05-06T02:23:17.622Z,65.80
2023-05-06T02:25:47.862Z,66.30
2023-05-06T02:28:17.833Z,66.40
2023-05-06T02:30:46.357Z,66.40
2023-05-06T02:33:14.828Z,66.50
2023-05-06T02:35:43.232Z,67.30
2023-05-06T02:38:11.674Z,67.90
2023-05-06T02:40:40.036Z,67.60
2023-05-06T02:43:08.350Z,67.50
2023-05-06T02:45:38.103Z,67.40
2023-05-06T02:48:07.013Z,67.40
2023-05-06T02:50:37.033Z,68.00
2023-05-06T02:53:05.459Z,68.60
2023-05-06T02:55:34.372Z,69.10
2023-05-06T02:58:02.761Z,69.60
2023-05-06T03:00:31.320Z,69.90
2023-05-06T03:03:01.347Z,70.50
2023-05-06T03:05:29.787Z,71.20
2023-05-06T03:07:58.228Z,70.70
2023-05-06T03:10:26.687Z,70.80
2023-05-06T03:12:56.638Z,70.80
2023-05-06T03:15:25.170Z,71.30
2023-05-06T03:17:53.710Z,72.10
2023-05-06T03:20:24.256Z,72.50
2023-05-06T03:22:56.697Z,72.60
2023-05-06T03:25:26.054Z,72.30
2023-05-06T03:27:55.386Z,72.10
2023-05-06T03:30:25.585Z,72.10
2023-05-06T03:32:57.665Z,72.00
2023-05-06T03:35:32.871Z,72.60
2023-05-06T03:38:02.746Z,73.40
2023-05-06T03:40:39.393Z,74.00
2023-05-06T03:43:08.203Z,75.30
2023-05-06T03:45:38.022Z,75.80
2023-05-06T03:48:07.676Z,75.80
2023-05-06T03:50:42.394Z,76.00
2023-05-06T03:53:10.967Z,76.10
2023-05-06T03:55:42.335Z,76.20
2023-05-06T03:58:13.730Z,76.60
2023-05-06T04:00:44.523Z,77.00
2023-05-06T04:03:13.286Z,77.50
2023-05-06T04:05:49.859Z,78.20
2023-05-06T04:08:20.987Z,78.70
2023-05-06T04:10:49.574Z,79.10
2023-05-06T04:13:26.905Z,79.50
2023-05-06T04:15:56.902Z,80.50
2023-05-06T04:18:30.716Z,81.00
2023-05-06T04:21:08.512Z,80.90
2023-05-06T04:23:39.297Z,81.50
2023-05-06T04:26:09.621Z,81.40
2023-05-06T04:28:41.291Z,81.20
2023-05-06T04:31:11.337Z,81.00
2023-05-06T04:33:44.894Z,80.80
2023-05-06T04:36:19.037Z,80.90
2023-05-06T04:39:10.671Z,80.90
2023-05-06T04:41:41.962Z,81.40
2023-05-06T04:44:13.252Z,81.00
2023-05-06T04:46:44.506Z,80.90
2023-05-06T04:49:13.581Z,80.70
2023-05-06T04:51:43.604Z,80.60
2023-05-06T04:54:12.217Z,80.90
2023-05-06T04:56:42.252Z,81.00
2023-05-06T04:59:14.758Z,81.00
2023-05-06T05:01:44.737Z,80.70
2023-05-06T05:04:13.581Z,80.30
2023-05-06T05:06:43.759Z,79.60
2023-05-06T05:09:12.088Z,78.50
2023-05-06T05:11:43.811Z,75.60
2023-05-06T05:14:12.287Z,74.90
2023-05-06T05:16:40.728Z,73.40
2023-05-06T05:19:09.802Z,72.00
2023-05-06T05:21:38.673Z,71.00
2023-05-06T05:24:10.063Z,69.10
2023-05-06T05:26:38.554Z,68.50
2023-05-06T05:29:08.147Z,67.10
2023-05-06T05:31:38.611Z,65.90
2023-05-06T05:34:08.067Z,64.80
2023-05-06T05:36:36.701Z,64.20
2023-05-06T05:39:09.714Z,64.10
2023-05-06T05:41:43.945Z,64.20
2023-05-06T05:44:12.832Z,64.40
2023-05-06T05:46:42.838Z,64.80
2023-05-06T05:49:14.827Z,64.20
2023-05-06T05:51:44.107Z,64.20
2023-05-06T05:54:17.509Z,63.80
2023-05-06T05:56:47.147Z,62.60
2023-05-06T05:59:16.854Z,61.00
2023-05-06T06:01:48.417Z,60.00
2023-05-06T06:04:17.108Z,60.10
2023-05-06T06:06:46.459Z,60.20
2023-05-06T06:09:16.794Z,59.80
2023-05-06T06:11:47.370Z,59.30
2023-05-06T06:14:16.910Z,58.50
2023-05-06T06:16:47.519Z,57.70
2023-05-06T06:19:16.931Z,56.40
2023-05-06T06:21:45.688Z,55.20
2023-05-06T06:24:14.771Z,54.50
2023-05-06T06:26:43.177Z,53.70
2023-05-06T06:29:13.001Z,52.60
2023-05-06T06:31:41.451Z,52.30
2023-05-06T06:34:12.705Z,51.70
2023-05-06T06:36:45.336Z,51.00
2023-05-06T06:39:13.918Z,50.30
2023-05-06T06:41:42.322Z,49.80
2023-05-06T06:44:12.130Z,49.20
2023-05-06T06:46:40.530Z,48.80
2023-05-06T06:49:08.907Z,48.80
2023-05-06T06:51:37.280Z,49.00
2023-05-06T06:54:05.820Z,49.50
2023-05-06T06:56:34.268Z,50.20
2023-05-06T06:59:02.644Z,50.50
2023-05-06T07:01:32.423Z,50.80
2023-05-06T07:04:01.033Z,51.10
2023-05-06T07:06:29.524Z,50.80
2023-05-06T07:08:58.051Z,50.90
2023-05-06T07:11:26.513Z,50.60
2023-05-06T07:13:54.907Z,50.70
2023-05-06T07:16:23.398Z,49.80
2023-05-06T07:18:54.009Z,49.30
2023-05-06T07:21:22.454Z,49.20
2023-05-06T07:23:51.198Z,48.70
2023-05-06T07:26:19.529Z,47.90
2023-05-06T07:28:47.990Z,47.50
2023-05-06T07:31:20.536Z,47.40
2023-05-06T07:33:48.975Z,47.10
2023-05-06T07:36:18.813Z,46.80
2023-05-06T07:38:47.239Z,47.10
2023-05-06T07:41:16.731Z,47.20
2023-05-06T07:43:45.126Z,47.40
2023-05-06T07:46:13.736Z,47.60
2023-05-06T07:48:42.196Z,47.80
2023-05-06T07:51:10.724Z,48.00
2023-05-06T07:53:40.650Z,48.20
2023-05-06T07:56:09.205Z,48.30
2023-05-06T07:58:37.725Z,48.50
2023-05-06T08:01:06.374Z,48.70
2023-05-06T08:03:35.386Z,48.90
2023-05-06T08:06:04.174Z,49.30
2023-05-06T08:08:32.581Z,49.60
2023-05-06T08:11:02.409Z,49.80
2023-05-06T08:13:31.718Z,50.30
2023-05-06T08:16:02.468Z,50.30
2023-05-06T08:18:31.085Z,50.60
2023-05-06T08:20:59.525Z,50.80
2023-05-06T08:23:28.005Z,50.90
2023-05-06T08:25:56.677Z,51.00
2023-05-06T08:28:26.596Z,50.90
2023-05-06T08:30:55.479Z,50.70
2023-05-06T08:33:23.821Z,50.50
2023-05-06T08:35:53.413Z,50.40
2023-05-06T08:38:21.889Z,50.30
2023-05-06T08:40:50.964Z,50.60
2023-05-06T08:43:22.149Z,50.70
2023-05-06T08:45:52.047Z,50.90
2023-05-06T08:48:20.534Z,50.90
2023-05-06T08:50:50.051Z,50.90
2023-05-06T08:53:18.672Z,50.90
2023-05-06T08:55:47.927Z,50.90
2023-05-06T08:58:17.470Z,50.60
2023-05-06T09:00:47.411Z,50.60
2023-05-06T09:03:17.309Z,50.40
2023-05-06T09:05:45.884Z,50.20
2023-05-06T09:08:15.970Z,49.90
2023-05-06T09:10:46.338Z,49.90
2023-05-06T09:13:16.422Z,50.00
2023-05-06T09:15:47.466Z,50.00
2023-05-06T09:18:17.630Z,49.80
2023-05-06T09:20:48.057Z,49.90
2023-05-06T09:23:18.413Z,50.10
2023-05-06T09:25:49.947Z,50.20
2023-05-06T09:28:18.458Z,50.30
2023-05-06T09:30:47.832Z,50.30
2023-05-06T09:33:17.760Z,50.30
2023-05-06T09:35:46.251Z,50.20
2023-05-06T09:38:14.576Z,50.30
2023-05-06T09:40:42.948Z,50.20
2023-05-06T09:43:13.024Z,50.20
2023-05-06T09:45:41.862Z,50.10
2023-05-06T09:48:10.543Z,50.20
2023-05-06T09:50:41.378Z,50.20
2023-05-06T09:53:10.712Z,50.20
2023-05-06T09:55:39.179Z,50.10
2023-05-06T09:58:09.280Z,50.00
2023-05-06T10:00:38.188Z,50.30
2023-05-06T10:03:07.278Z,50.60
2023-05-06T10:05:37.736Z,50.90
2023-05-06T10:08:08.624Z,51.00
2023-05-06T10:10:42.093Z,51.10
2023-05-06T10:13:11.354Z,51.00
2023-05-06T10:15:41.175Z,50.90
2023-05-06T10:18:12.144Z,51.00
2023-05-06T10:20:42.474Z,51.10
2023-05-06T10:23:23.073Z,51.10
2023-05-06T10:25:55.330Z,51.30
2023-05-06T10:28:31.272Z,51.50
2023-05-06T10:31:00.956Z,51.60
2023-05-06T10:33:30.574Z,51.80
2023-05-06T10:36:14.878Z,52.00
2023-05-06T10:38:49.312Z,52.30
2023-05-06T10:41:19.737Z,52.90
2023-05-06T10:43:49.327Z,53.60
2023-05-06T10:46:19.153Z,54.10
2023-05-06T10:49:20.517Z,54.50
2023-05-06T10:52:12.600Z,54.80
2023-05-06T10:54:52.785Z,54.70
2023-05-06T10:57:26.705Z,54.70
2023-05-06T10:59:56.205Z,54.80
2023-05-06T11:02:25.493Z,54.70
2023-05-06T11:05:01.973Z,54.70
2023-05-06T11:07:37.887Z,54.70
2023-05-06T11:10:12.196Z,54.50
2023-05-06T11:12:49.272Z,54.40
2023-05-06T11:15:38.759Z,54.40
2023-05-06T11:18:40.083Z,54.50
2023-05-06T11:21:37.788Z,54.70
2023-05-06T11:24:10.214Z,54.70
2023-05-06T11:26:42.014Z,54.30
2023-05-06T11:29:10.666Z,54.10
2023-05-06T11:31:44.098Z,53.90
2023-05-06T11:34:18.934Z,53.60
2023-05-06T11:36:59.459Z,53.50
2023-05-06T11:39:30.900Z,54.00
2023-05-06T11:42:03.088Z,53.30
2023-05-06T11:44:34.309Z,53.30
2023-05-06T11:47:05.806Z,53.00
2023-05-06T11:49:38.885Z,53.00
2023-05-06T11:52:07.561Z,53.00
2023-05-06T11:54:37.478Z,52.80
2023-05-06T11:57:07.468Z,52.70
2023-05-06T11:59:38.422Z,52.50
2023-05-06T12:02:08.780Z,52.40
2023-05-06T12:04:41.586Z,52.40
2023-05-06T12:07:11.946Z,52.20
2023-05-06T12:09:42.977Z,52.30
2023-05-06T12:12:16.265Z,52.20
2023-05-06T12:14:45.678Z,52.20
2023-05-06T12:17:14.882Z,52.20
2023-05-06T12:19:43.447Z,52.60
2023-05-06T12:22:22.571Z,52.70
2023-05-06T12:24:51.340Z,52.30
2023-05-06T12:27:34.726Z,52.40
2023-05-06T12:30:04.969Z,52.20
2023-05-06T12:32:34.415Z,52.20
2023-05-06T12:35:05.992Z,52.10
2023-05-06T12:37:34.570Z,52.30
2023-05-06T12:40:04.101Z,52.20
2023-05-06T12:42:33.873Z,51.90
2023-05-06T12:45:15.540Z,51.80
2023-05-06T12:47:53.929Z,52.40
2023-05-06T12:50:38.809Z,51.90
2023-05-06T12:53:09.253Z,51.70
2023-05-06T12:55:39.457Z,52.30
2023-05-06T12:58:19.314Z,52.00
2023-05-06T13:00:47.737Z,50.60
2023-05-06T13:03:16.358Z,49.70
2023-05-06T13:05:46.438Z,48.50
2023-05-06T13:08:14.825Z,47.10
2023-05-06T13:10:43.203Z,45.80
2023-05-06T13:13:11.693Z,44.60
2023-05-06T13:15:41.631Z,43.70
2023-05-06T13:18:10.959Z,42.10
2023-05-06T13:20:39.365Z,40.90
2023-05-06T13:23:07.930Z,40.00
2023-05-06T13:25:42.015Z,39.90
2023-05-06T13:28:20.388Z,38.20
2023-05-06T13:30:50.265Z,38.00
2023-05-06T13:33:18.747Z,33.80
2023-05-06T13:35:47.505Z,35.00
2023-05-06T13:38:15.961Z,34.70
2023-05-06T13:40:47.160Z,34.60
2023-05-06T13:43:15.741Z,33.70
2023-05-06T13:45:45.293Z,32.50
2023-05-06T13:48:15.403Z,30.20
2023-05-06T13:50:44.052Z,29.40
2023-05-06T13:53:12.577Z,29.90
2023-05-06T13:55:41.417Z,30.10
2023-05-06T13:58:09.924Z,30.00
2023-05-06T14:00:38.349Z,30.20
2023-05-06T14:03:07.057Z,30.50
2023-05-06T14:05:37.090Z,30.90
2023-05-06T14:08:05.890Z,31.20
2023-05-06T14:10:34.592Z,31.90
2023-05-06T14:13:04.720Z,32.50
2023-05-06T14:15:35.726Z,33.00
2023-05-06T14:18:05.069Z,33.50
2023-05-06T14:20:33.666Z,34.80
2023-05-06T14:23:06.574Z,34.80
2023-05-06T14:25:35.069Z,35.00
2023-05-06T14:28:03.590Z,35.30
2023-05-06T14:30:32.473Z,35.70
2023-05-06T14:33:01.056Z,36.10
2023-05-06T14:35:29.516Z,36.70
2023-05-06T14:37:58.062Z,37.80
2023-05-06T14:40:28.011Z,37.30
2023-05-06T14:42:56.371Z,38.10
2023-05-06T14:45:25.022Z,38.40
2023-05-06T14:47:53.489Z,38.70
2023-05-06T14:50:22.062Z,38.80
2023-05-06T14:52:50.514Z,38.90
2023-05-06T14:55:20.526Z,39.20
2023-05-06T14:57:50.161Z,39.80
2023-05-06T15:00:19.066Z,40.40
2023-05-06T15:02:47.683Z,40.70
2023-05-06T15:05:16.264Z,41.50
2023-05-06T15:07:44.701Z,41.70
2023-05-06T15:10:13.201Z,41.60
2023-05-06T15:12:41.657Z,41.70
2023-05-06T15:15:11.880Z,42.00
2023-05-06T15:17:41.853Z,42.20
2023-05-06T15:20:11.065Z,42.60
2023-05-06T15:22:39.860Z,43.00
2023-05-06T15:25:12.227Z,43.40
2023-05-06T15:27:42.935Z,43.40
2023-05-06T15:30:13.492Z,43.80
2023-05-06T15:32:41.943Z,44.10
2023-05-06T15:35:10.857Z,44.00
2023-05-06T15:37:39.464Z,43.80
2023-05-06T15:40:11.419Z,43.80
2023-05-06T15:42:40.835Z,43.80
2023-05-06T15:45:09.867Z,44.00
2023-05-06T15:47:39.675Z,44.10
2023-05-06T15:50:20.192Z,44.50
2023-05-06T15:52:53.497Z,44.70
2023-05-06T15:55:22.173Z,45.10
2023-05-06T15:57:50.621Z,46.10
2023-05-06T16:00:19.274Z,46.10
2023-05-06T16:02:49.211Z,46.20
2023-05-06T16:05:18.114Z,46.50
2023-05-06T16:07:46.521Z,47.70
2023-05-06T16:10:14.966Z,47.50
2023-05-06T16:12:43.507Z,47.80
2023-05-06T16:15:12.447Z,48.20
2023-05-06T16:17:40.891Z,48.40
2023-05-06T16:20:11.739Z,48.90
2023-05-06T16:22:41.167Z,49.00
2023-05-06T16:25:10.037Z,49.20
2023-05-06T16:27:38.374Z,49.20
2023-05-06T16:30:08.587Z,49.20
2023-05-06T16:32:37.194Z,49.60
2023-05-06T16:35:05.948Z,49.90
2023-05-06T16:37:35.692Z,50.10
2023-05-06T16:40:04.471Z,50.40
2023-05-06T16:42:33.022Z,50.70
2023-05-06T16:45:01.426Z,51.00
2023-05-06T16:47:29.937Z,51.20
2023-05-06T16:49:58.457Z,51.30
2023-05-06T16:52:26.877Z,51.30
2023-05-06T16:54:56.630Z,51.30
2023-05-06T16:57:24.996Z,51.30
2023-05-06T16:59:53.330Z,51.30
2023-05-06T17:02:21.759Z,51.40
2023-05-06T17:04:50.312Z,51.50
2023-05-06T17:07:18.747Z,51.60
2023-05-06T17:09:47.132Z,51.80
2023-05-06T17:12:16.880Z,51.90
2023-05-06T17:14:45.299Z,51.80
2023-05-06T17:17:13.700Z,51.90
2023-05-06T17:19:42.134Z,52.30
2023-05-06T17:22:11.179Z,52.80
2023-05-06T17:24:39.771Z,53.50
2023-05-06T17:27:08.127Z,53.10
2023-05-06T17:29:37.990Z,53.20
2023-05-06T17:32:06.659Z,53.30
2023-05-06T17:34:35.555Z,53.60
2023-05-06T17:37:04.869Z,53.70
2023-05-06T17:39:34.074Z,53.80
2023-05-06T17:42:02.926Z,53.80
2023-05-06T17:44:33.131Z,54.10
2023-05-06T17:47:02.942Z,54.20
2023-05-06T17:49:31.465Z,54.40
2023-05-06T17:52:01.555Z,54.60
2023-05-06T17:54:32.558Z,54.80
2023-05-06T17:57:01.037Z,55.00
2023-05-06T17:59:29.527Z,55.30
2023-05-06T18:01:58.258Z,55.50
2023-05-06T18:04:28.118Z,55.70
2023-05-06T18:06:57.180Z,56.40
2023-05-06T18:09:25.610Z,56.20
2023-05-06T18:11:54.035Z,56.40
2023-05-06T18:14:22.441Z,56.60
2023-05-06T18:16:50.973Z,57.00
2023-05-06T18:19:19.925Z,57.00
2023-05-06T18:21:49.690Z,57.30
2023-05-06T18:24:18.406Z,57.40
2023-05-06T18:26:46.792Z,57.60
2023-05-06T18:29:15.343Z,57.90
2023-05-06T18:31:43.859Z,57.90
2023-05-06T18:34:12.523Z,57.90
2023-05-06T18:36:41.064Z,58.10
2023-05-06T18:39:11.006Z,58.20
2023-05-06T18:41:39.450Z,58.30
2023-05-06T18:44:08.012Z,58.50
2023-05-06T18:46:36.410Z,58.60
2023-05-06T18:49:04.782Z,58.80
2023-05-06T18:51:33.223Z,58.90
2023-05-06T18:54:01.628Z,59.10
2023-05-06T18:56:31.814Z,59.20
2023-05-06T18:59:00.979Z,59.40
2023-05-06T19:01:29.351Z,59.50
2023-05-06T19:03:57.954Z,59.70
2023-05-06T19:06:26.496Z,59.80
2023-05-06T19:08:54.936Z,59.90
2023-05-06T19:11:23.406Z,60.20
2023-05-06T19:13:54.038Z,60.20
2023-05-06T19:16:22.503Z,60.40
2023-05-06T19:18:51.112Z,60.70
2023-05-06T19:21:19.735Z,60.80
2023-05-06T19:23:48.169Z,61.10
2023-05-06T19:26:16.615Z,61.10
2023-05-06T19:28:45.072Z,61.40
2023-05-06T19:31:15.218Z,61.60
2023-05-06T19:33:44.203Z,61.80
2023-05-06T19:36:12.671Z,62.00
2023-05-06T19:38:41.085Z,62.20
2023-05-06T19:41:10.910Z,62.30
2023-05-06T19:43:42.959Z,62.60
2023-05-06T19:46:11.664Z,62.60
2023-05-06T19:48:41.445Z,62.80
2023-05-06T19:51:09.944Z,62.90
2023-05-06T19:53:38.493Z,63.10
2023-05-06T19:56:10.601Z,63.20
2023-05-06T19:58:39.097Z,63.40
2023-05-06T20:01:07.606Z,63.50
2023-05-06T20:03:36.723Z,63.60
2023-05-06T20:06:06.556Z,63.80
2023-05-06T20:08:35.463Z,63.90
2023-05-06T20:11:04.109Z,64.10
2023-05-06T20:13:32.705Z,64.10
2023-05-06T20:16:02.156Z,64.30
2023-05-06T20:18:32.200Z,64.50
2023-05-06T20:21:00.889Z,64.60
2023-05-06T20:23:31.990Z,64.80
2023-05-06T20:26:00.494Z,65.00
2023-05-06T20:28:28.942Z,65.30
2023-05-06T20:30:59.779Z,65.60
2023-05-06T20:33:28.350Z,65.80
2023-05-06T20:35:57.966Z,66.00
2023-05-06T20:38:27.294Z,66.00
2023-05-06T20:40:57.983Z,66.10
2023-05-06T20:43:26.523Z,66.30
2023-05-06T20:45:54.949Z,66.30
2023-05-06T20:48:23.435Z,66.40
2023-05-06T20:50:54.866Z,66.50
2023-05-06T20:53:23.561Z,66.50
2023-05-06T20:55:52.229Z,66.60
2023-05-06T20:58:21.997Z,66.80
2023-05-06T21:00:50.681Z,67.20
2023-05-06T21:03:19.114Z,67.50
2023-05-06T21:05:47.617Z,69.30
2023-05-06T21:08:16.638Z,70.60
2023-05-06T21:10:45.118Z,70.80
2023-05-06T21:13:13.606Z,70.80
2023-05-06T21:15:43.341Z,70.90
2023-05-06T21:18:11.823Z,70.80
2023-05-06T21:20:40.520Z,71.00
2023-05-06T21:23:09.025Z,71.30
2023-05-06T21:25:37.506Z,71.50
2023-05-06T21:28:06.702Z,71.90
2023-05-06T21:30:36.908Z,72.10
2023-05-06T21:33:11.119Z,72.60
2023-05-06T21:35:39.900Z,73.10
2023-05-06T21:38:08.474Z,73.50
2023-05-06T21:40:36.930Z,73.90
2023-05-06T21:43:05.805Z,74.40
2023-05-06T21:45:34.182Z,74.60
2023-05-06T21:48:02.726Z,74.90
2023-05-06T21:50:32.671Z,75.20
2023-05-06T21:53:01.072Z,75.70
2023-05-06T21:55:29.592Z,76.10
2023-05-06T21:57:58.073Z,76.80
2023-05-06T22:00:26.583Z,77.30
2023-05-06T22:02:56.151Z,77.90
2023-05-06T22:05:24.694Z,78.60
2023-05-06T22:07:54.490Z,79.30
2023-05-06T22:10:23.067Z,79.70
2023-05-06T22:12:51.931Z,80.20
2023-05-06T22:15:20.423Z,80.60
2023-05-06T22:17:48.737Z,80.80
2023-05-06T22:20:17.635Z,81.30
2023-05-06T22:22:46.171Z,81.70
2023-05-06T22:25:15.860Z,82.20
2023-05-06T22:27:44.215Z,82.70
2023-05-06T22:30:15.123Z,83.20
2023-05-06T22:32:43.623Z,83.80
2023-05-06T22:35:12.372Z,84.60
2023-05-06T22:37:41.051Z,85.10
2023-05-06T22:40:10.859Z,85.30
2023-05-06T22:42:40.845Z,85.50
2023-05-06T22:45:11.011Z,86.20
2023-05-06T22:47:39.614Z,86.90
2023-05-06T22:50:09.025Z,87.40
2023-05-06T22:52:38.237Z,88.00
2023-05-06T22:55:10.040Z,88.50
2023-05-06T22:57:39.985Z,88.80
2023-05-06T23:00:12.572Z,90.00
2023-05-06T23:02:41.429Z,89.70
2023-05-06T23:05:10.531Z,90.00
2023-05-06T23:07:39.859Z,90.30
2023-05-06T23:10:09.071Z,90.40
2023-05-06T23:12:37.710Z,90.60
2023-05-06T23:15:08.797Z,90.80
2023-05-06T23:17:37.390Z,90.90
2023-05-06T23:20:06.458Z,91.10
2023-05-06T23:22:34.884Z,91.10
2023-05-06T23:25:03.312Z,91.30
2023-05-06T23:27:31.740Z,91.50
2023-05-06T23:30:00.115Z,91.70
2023-05-06T23:32:29.839Z,92.00
2023-05-06T23:34:58.263Z,92.30
2023-05-06T23:37:26.618Z,92.50
2023-05-06T23:39:56.965Z,92.80
2023-05-06T23:42:25.827Z,92.90
2023-05-06T23:44:54.202Z,93.10
2023-05-06T23:47:24.470Z,93.30
2023-05-06T23:49:54.268Z,93.50
2023-05-06T23:52:22.690Z,93.70
2023-05-06T23:54:51.196Z,93.80
2023-05-06T23:57:19.623Z,93.90
2023-05-06T23:59:48.010Z,94.20
